createdAt,value
2022-09-16T00:01:12.749Z,11.17
2022-09-16T00:03:41.474Z,11.20
2022-09-16T00:06:19.798Z,11.40
2022-09-16T00:08:48.245Z,11.37
2022-09-16T00:11:17.021Z,11.67
2022-09-16T00:13:45.183Z,11.53
2022-09-16T00:16:17.244Z,10.87
2022-09-16T00:18:45.286Z,12.17
2022-09-16T00:21:14.870Z,11.00
2022-09-16T00:23:42.999Z,10.63
2022-09-16T00:26:10.950Z,10.83
2022-09-16T00:28:38.934Z,10.77
2022-09-16T00:31:07.178Z,10.70
2022-09-16T00:33:35.171Z,10.53
2022-09-16T00:36:11.508Z,9.97
2022-09-16T00:38:41.539Z,10.60
2022-09-16T00:41:15.468Z,10.70
2022-09-16T00:43:56.476Z,10.23
2022-09-16T00:46:31.688Z,10.60
2022-09-16T00:49:02.889Z,10.40
2022-09-16T00:51:30.961Z,9.70
2022-09-16T00:54:03.283Z,9.23
2022-09-16T00:56:38.398Z,9.73
2022-09-16T00:59:10.878Z,8.83
2022-09-16T01:01:40.045Z,9.27
2022-09-16T01:04:12.890Z,9.70
2022-09-16T01:06:41.857Z,9.23
2022-09-16T01:09:11.179Z,9.43
2022-09-16T01:11:39.093Z,9.80
2022-09-16T01:14:24.722Z,9.47
2022-09-16T01:17:00.953Z,9.33
2022-09-16T01:19:44.302Z,8.97
2022-09-16T01:22:30.163Z,9.33
2022-09-16T01:25:07.035Z,8.53
2022-09-16T01:28:04.328Z,9.27
2022-09-16T01:30:49.484Z,8.90
2022-09-16T01:33:31.574Z,9.37
2022-09-16T01:36:09.625Z,9.40
2022-09-16T01:38:59.115Z,8.53
2022-09-16T01:41:35.776Z,8.70
2022-09-16T01:44:10.265Z,8.53
2022-09-16T01:46:46.333Z,8.43
2022-09-16T01:49:22.956Z,8.40
2022-09-16T01:51:55.786Z,8.10
2022-09-16T01:54:30.439Z,8.00
2022-09-16T01:57:05.739Z,8.60
2022-09-16T01:59:42.002Z,8.57
2022-09-16T02:02:20.933Z,9.07
2022-09-16T02:04:52.651Z,8.90
2022-09-16T02:07:24.388Z,9.97
2022-09-16T02:09:58.463Z,9.40
2022-09-16T02:12:30.804Z,8.93
2022-09-16T02:15:07.078Z,9.67
2022-09-16T02:17:42.654Z,9.20
2022-09-16T02:20:14.555Z,9.97
2022-09-16T02:22:45.487Z,9.93
2022-09-16T02:25:15.712Z,10.23
2022-09-16T02:27:46.944Z,9.70
2022-09-16T02:30:19.664Z,10.10
2022-09-16T02:32:51.986Z,10.23
2022-09-16T02:35:22.479Z,9.73
2022-09-16T02:37:53.822Z,9.60
2022-09-16T02:40:28.836Z,9.90
2022-09-16T02:42:58.410Z,9.90
2022-09-16T02:45:35.105Z,9.20
2022-09-16T02:48:14.089Z,9.90
2022-09-16T02:50:47.369Z,9.67
2022-09-16T02:53:29.272Z,9.47
2022-09-16T02:56:03.410Z,8.60
2022-09-16T02:58:31.554Z,9.00
2022-09-16T03:01:00.036Z,8.77
2022-09-16T03:03:29.479Z,8.33
2022-09-16T03:06:18.306Z,8.70
2022-09-16T03:08:47.534Z,8.67
2022-09-16T03:11:35.401Z,8.40
2022-09-16T03:14:19.882Z,8.43
2022-09-16T03:16:58.033Z,8.77
2022-09-16T03:19:37.291Z,8.13
2022-09-16T03:22:13.865Z,8.17
2022-09-16T03:24:57.302Z,8.73
2022-09-16T03:27:31.857Z,8.80
2022-09-16T03:30:06.183Z,8.30
2022-09-16T03:32:39.691Z,8.83
2022-09-16T03:35:13.611Z,8.30
2022-09-16T03:37:42.965Z,8.30
2022-09-16T03:40:14.011Z,8.13
2022-09-16T03:42:43.668Z,7.47
2022-09-16T03:45:16.923Z,7.83
2022-09-16T03:47:45.599Z,7.90
2022-09-16T03:50:15.301Z,7.70
2022-09-16T03:52:43.385Z,7.87
2022-09-16T03:55:12.081Z,7.87
2022-09-16T03:57:40.269Z,7.30
2022-09-16T04:00:10.533Z,7.73
2022-09-16T04:02:38.593Z,7.80
2022-09-16T04:05:08.178Z,7.90
2022-09-16T04:07:37.919Z,8.50
2022-09-16T04:10:07.528Z,7.83
2022-09-16T04:12:35.468Z,7.97
2022-09-16T04:15:03.627Z,7.50
2022-09-16T04:17:32.788Z,7.40
2022-09-16T04:20:01.369Z,7.90
2022-09-16T04:22:30.524Z,7.93
2022-09-16T04:24:59.864Z,8.53
2022-09-16T04:27:28.144Z,7.77
2022-09-16T04:29:56.105Z,7.87
2022-09-16T04:32:24.449Z,8.50
2022-09-16T04:34:52.387Z,8.47
2022-09-16T04:37:20.459Z,8.47
2022-09-16T04:39:48.950Z,8.90
2022-09-16T04:42:18.546Z,9.10
2022-09-16T04:44:46.748Z,8.80
2022-09-16T04:47:14.673Z,8.77
2022-09-16T04:49:42.769Z,8.77
2022-09-16T04:52:11.638Z,10.67
2022-09-16T04:54:39.813Z,10.10
2022-09-16T04:57:08.502Z,10.17
2022-09-16T04:59:37.791Z,10.10
2022-09-16T05:02:06.202Z,9.40
2022-09-16T05:04:34.270Z,9.73
2022-09-16T05:07:02.218Z,9.97
2022-09-16T05:09:30.535Z,9.63
2022-09-16T05:11:58.557Z,10.87
2022-09-16T05:14:26.528Z,11.30
2022-09-16T05:16:56.194Z,11.73
2022-09-16T05:19:24.775Z,11.30
2022-09-16T05:21:53.092Z,11.30
2022-09-16T05:24:21.047Z,12.10
2022-09-16T05:26:49.073Z,12.00
2022-09-16T05:29:18.212Z,12.63
2022-09-16T05:31:47.938Z,11.73
2022-09-16T05:34:19.120Z,11.70
2022-09-16T05:36:48.841Z,11.97
2022-09-16T05:39:23.359Z,11.97
2022-09-16T05:41:56.102Z,11.97
2022-09-16T05:44:26.642Z,11.87
2022-09-16T05:46:55.247Z,11.87
2022-09-16T05:49:24.781Z,12.00
2022-09-16T05:51:53.224Z,12.70
2022-09-16T05:54:23.790Z,11.93
2022-09-16T05:56:52.734Z,12.23
2022-09-16T05:59:21.008Z,12.47
2022-09-16T06:01:49.051Z,11.33
2022-09-16T06:04:17.557Z,12.13
2022-09-16T06:06:47.999Z,12.13
2022-09-16T06:09:19.334Z,11.87
2022-09-16T06:11:49.047Z,11.80
2022-09-16T06:14:18.259Z,11.47
2022-09-16T06:16:46.660Z,10.97
2022-09-16T06:19:17.130Z,11.23
2022-09-16T06:21:47.612Z,11.10
2022-09-16T06:24:17.772Z,11.00
2022-09-16T06:26:46.879Z,10.50
2022-09-16T06:29:15.787Z,11.13
2022-09-16T06:31:44.382Z,11.00
2022-09-16T06:34:16.627Z,10.67
2022-09-16T06:36:45.975Z,11.17
2022-09-16T06:39:15.352Z,10.07
2022-09-16T06:41:43.558Z,10.60
2022-09-16T06:44:11.771Z,10.10
2022-09-16T06:46:40.186Z,9.80
2022-09-16T06:49:08.175Z,9.57
2022-09-16T06:51:36.949Z,10.00
2022-09-16T06:54:08.277Z,9.17
2022-09-16T06:56:39.163Z,9.17
2022-09-16T06:59:08.421Z,9.47
2022-09-16T07:01:37.063Z,8.80
2022-09-16T07:04:08.217Z,9.40
2022-09-16T07:07:08.546Z,9.67
2022-09-16T07:09:26.752Z,9.37
2022-09-16T07:11:55.230Z,10.20
2022-09-16T07:14:25.150Z,9.83
2022-09-16T07:16:53.701Z,10.57
2022-09-16T07:19:21.901Z,10.23
2022-09-16T07:21:50.191Z,9.47
2022-09-16T07:24:18.295Z,9.33
2022-09-16T07:26:48.265Z,9.77
2022-09-16T07:29:18.257Z,9.80
2022-09-16T07:31:46.269Z,10.37
2022-09-16T07:34:15.109Z,10.60
2022-09-16T07:36:44.493Z,9.90
2022-09-16T07:39:13.712Z,10.00
2022-09-16T07:41:43.372Z,10.23
2022-09-16T07:44:13.959Z,9.67
2022-09-16T07:46:42.488Z,9.63
2022-09-16T07:49:13.657Z,9.97
2022-09-16T07:51:41.855Z,9.80
2022-09-16T07:54:12.266Z,9.60
2022-09-16T07:56:41.878Z,9.27
2022-09-16T07:59:17.643Z,9.63
2022-09-16T08:01:47.252Z,8.90
2022-09-16T08:04:15.533Z,9.13
2022-09-16T08:06:43.512Z,9.07
2022-09-16T08:09:37.969Z,9.17
2022-09-16T08:12:00.859Z,8.90
2022-09-16T08:14:30.230Z,8.40
2022-09-16T08:16:58.816Z,9.50
2022-09-16T08:19:26.903Z,8.70
2022-09-16T08:21:54.859Z,8.70
2022-09-16T08:24:23.156Z,8.20
2022-09-16T08:26:51.149Z,8.23
2022-09-16T08:29:19.189Z,8.60
2022-09-16T08:31:48.748Z,8.40
2022-09-16T08:34:17.124Z,8.77
2022-09-16T08:36:45.645Z,8.50
2022-09-16T08:39:15.047Z,8.90
2022-09-16T08:41:57.314Z,8.53
2022-09-16T08:44:37.645Z,8.70
2022-09-16T08:47:16.460Z,9.20
2022-09-16T08:49:47.390Z,8.63
2022-09-16T08:52:24.715Z,8.97
2022-09-16T08:54:57.496Z,8.77
2022-09-16T08:57:28.932Z,9.00
2022-09-16T09:00:00.716Z,9.17
2022-09-16T09:05:17.652Z,9.00
2022-09-16T09:07:58.700Z,9.50
2022-09-16T09:10:32.086Z,9.47
2022-09-16T09:13:11.183Z,9.93
2022-09-16T09:15:44.466Z,9.50
2022-09-16T09:18:26.830Z,15.67
2022-09-16T09:21:02.153Z,10.50
2022-09-16T09:23:45.446Z,9.93
2022-09-16T09:26:22.141Z,9.47
2022-09-16T09:29:06.685Z,9.20
2022-09-16T09:31:43.074Z,9.67
2022-09-16T09:34:23.640Z,9.77
2022-09-16T09:37:01.996Z,10.03
2022-09-16T09:39:52.355Z,10.53
2022-09-16T09:42:26.828Z,11.97
2022-09-16T09:45:02.276Z,12.97
2022-09-16T09:47:37.891Z,13.90
2022-09-16T09:50:19.250Z,13.83
2022-09-16T09:52:51.370Z,14.40
2022-09-16T09:55:20.806Z,15.97
2022-09-16T09:58:10.421Z,15.07
2022-09-16T10:00:38.957Z,13.93
2022-09-16T10:03:13.223Z,14.73
2022-09-16T10:05:45.557Z,15.33
2022-09-16T10:08:23.714Z,13.43
2022-09-16T10:10:54.184Z,13.13
2022-09-16T10:13:23.776Z,12.80
2022-09-16T10:15:55.595Z,14.07
2022-09-16T10:18:26.911Z,12.83
2022-09-16T10:21:04.836Z,12.57
2022-09-16T10:23:33.652Z,12.73
2022-09-16T10:26:19.137Z,12.33
2022-09-16T10:28:58.261Z,11.97
2022-09-16T10:31:32.114Z,11.50
2022-09-16T10:34:04.009Z,11.93
2022-09-16T10:36:36.524Z,12.53
2022-09-16T10:39:06.227Z,12.20
2022-09-16T10:41:41.949Z,9.47
2022-09-16T10:44:17.857Z,7.67
2022-09-16T10:46:53.475Z,6.13
2022-09-16T10:49:25.801Z,6.37
2022-09-16T10:51:55.351Z,6.00
2022-09-16T10:54:28.350Z,6.70
2022-09-16T10:56:56.369Z,5.97
2022-09-16T10:59:24.361Z,6.17
2022-09-16T11:02:00.529Z,5.97
2022-09-16T11:04:55.485Z,6.60
2022-09-16T11:07:35.846Z,6.53
2022-09-16T11:10:13.189Z,7.20
2022-09-16T11:13:11.029Z,7.43
2022-09-16T11:15:50.594Z,7.80
2022-09-16T11:18:34.119Z,8.10
2022-09-16T11:21:17.051Z,7.93
2022-09-16T11:24:09.378Z,8.27
2022-09-16T11:26:44.883Z,7.87
2022-09-16T11:29:28.859Z,5.20
2022-09-16T11:32:03.780Z,3.80
2022-09-16T11:34:54.248Z,4.10
2022-09-16T11:37:27.766Z,3.80
2022-09-16T11:40:20.313Z,4.20
2022-09-16T11:42:58.381Z,4.40
2022-09-16T11:45:43.584Z,5.50
2022-09-16T11:48:30.837Z,5.30
2022-09-16T11:51:08.213Z,5.77
2022-09-16T11:54:01.943Z,6.43
2022-09-16T11:56:39.137Z,5.70
2022-09-16T11:59:16.375Z,6.70
2022-09-16T12:01:47.714Z,6.63
2022-09-16T12:04:21.900Z,6.17
2022-09-16T12:07:01.047Z,5.90
2022-09-16T12:09:37.942Z,6.40
2022-09-16T12:12:14.782Z,6.43
2022-09-16T12:14:46.339Z,7.03
2022-09-16T12:17:18.871Z,6.80
2022-09-16T12:19:53.430Z,7.60
2022-09-16T12:22:24.346Z,7.53
2022-09-16T12:25:03.334Z,7.20
2022-09-16T12:27:42.942Z,6.67
2022-09-16T12:30:17.449Z,7.40
2022-09-16T12:33:00.689Z,6.53
2022-09-16T12:35:33.029Z,6.77
2022-09-16T12:38:01.810Z,6.77
2022-09-16T12:40:35.870Z,6.80
2022-09-16T12:43:26.740Z,6.50
2022-09-16T12:46:22.125Z,6.77
2022-09-16T12:49:07.728Z,7.20
2022-09-16T12:52:05.193Z,7.20
2022-09-16T12:55:08.071Z,7.83
2022-09-16T12:57:48.507Z,7.33
2022-09-16T13:00:22.183Z,7.83
2022-09-16T13:02:53.989Z,8.20
2022-09-16T13:05:30.859Z,7.27
2022-09-16T13:08:08.082Z,7.93
2022-09-16T13:11:00.819Z,5.33
2022-09-16T13:13:37.059Z,5.87
2022-09-16T13:16:08.171Z,6.17
2022-09-16T13:18:46.805Z,6.50
2022-09-16T13:21:26.108Z,5.53
2022-09-16T13:24:03.966Z,4.93
2022-09-16T13:26:41.173Z,4.50
2022-09-16T13:29:43.890Z,4.33
2022-09-16T13:32:38.272Z,4.37
2022-09-16T13:35:22.166Z,4.30
2022-09-16T13:37:54.431Z,4.60
2022-09-16T13:40:25.391Z,3.80
2022-09-16T13:43:14.010Z,3.70
